createdAt,value
2022-10-26T00:01:15.726Z,100845.47
2022-10-26T00:03:44.134Z,100843.41
2022-10-26T00:06:17.028Z,100848.25
2022-10-26T00:08:44.625Z,100857.78
2022-10-26T00:11:12.410Z,100860.81
2022-10-26T00:13:40.753Z,100869.03
2022-10-26T00:16:09.930Z,100863.81
2022-10-26T00:18:36.812Z,100860.00
2022-10-26T00:21:07.630Z,100866.41
2022-10-26T00:23:34.615Z,100875.38
2022-10-26T00:26:01.636Z,100866.31
2022-10-26T00:28:28.628Z,100869.31
2022-10-26T00:30:55.886Z,100871.88
2022-10-26T00:33:22.741Z,100874.81
2022-10-26T00:35:53.859Z,100873.22
2022-10-26T00:38:21.000Z,100876.25
2022-10-26T00:40:48.192Z,100865.44
2022-10-26T00:43:36.131Z,100874.53
2022-10-26T00:46:06.860Z,100877.91
2022-10-26T00:48:42.088Z,100877.81
2022-10-26T00:51:15.755Z,100884.94
2022-10-26T00:53:43.270Z,100879.09
2022-10-26T00:56:10.371Z,100889.06
2022-10-26T00:58:38.830Z,100882.81
2022-10-26T01:01:05.737Z,100882.31
2022-10-26T01:03:34.685Z,100879.19
2022-10-26T01:06:04.361Z,100877.72
2022-10-26T01:08:31.818Z,100876.00
2022-10-26T01:11:00.433Z,100871.16
2022-10-26T01:13:31.077Z,100878.75
2022-10-26T01:16:29.162Z,100878.53
2022-10-26T01:19:23.481Z,100875.91
2022-10-26T01:22:00.858Z,100878.34
2022-10-26T01:24:36.535Z,100881.25
2022-10-26T01:27:25.299Z,100880.13
2022-10-26T01:30:10.463Z,100875.25
2022-10-26T01:33:01.334Z,100874.44
2022-10-26T01:35:37.255Z,100865.75
2022-10-26T01:38:36.486Z,100863.78
2022-10-26T01:41:28.289Z,100862.84
2022-10-26T01:44:43.042Z,100869.06
2022-10-26T01:47:13.636Z,100859.00
2022-10-26T01:49:48.496Z,100859.47
2022-10-26T01:52:15.465Z,100856.34
2022-10-26T01:54:42.320Z,100849.03
2022-10-26T01:57:12.148Z,100843.09
2022-10-26T02:00:03.385Z,100855.53
2022-10-26T02:03:04.548Z,100857.41
2022-10-26T02:05:34.082Z,100850.16
2022-10-26T02:08:28.890Z,100861.41
2022-10-26T02:11:10.934Z,100864.19
2022-10-26T02:14:18.473Z,100864.19
2022-10-26T02:16:45.333Z,100868.94
2022-10-26T02:19:15.056Z,100874.59
2022-10-26T02:21:47.664Z,100870.13
2022-10-26T02:24:16.901Z,100870.13
2022-10-26T02:26:47.682Z,100869.91
2022-10-26T02:29:19.433Z,100864.22
2022-10-26T02:31:50.304Z,100872.00
2022-10-26T02:34:22.753Z,100874.31
2022-10-26T02:36:53.818Z,100882.34
2022-10-26T02:39:22.050Z,100876.09
2022-10-26T02:41:50.056Z,100881.09
2022-10-26T02:44:23.875Z,100872.94
2022-10-26T02:46:52.063Z,100878.50
2022-10-26T02:49:19.605Z,100891.28
2022-10-26T02:51:50.628Z,100893.72
2022-10-26T02:55:01.023Z,100894.97
2022-10-26T02:57:42.400Z,100911.56
2022-10-26T03:00:11.891Z,100912.72
2022-10-26T03:02:38.966Z,100918.19
2022-10-26T03:05:22.927Z,100918.28
2022-10-26T03:26:03.839Z,100952.31
2022-10-26T03:28:31.440Z,100944.41
2022-10-26T03:30:58.208Z,100948.44
2022-10-26T03:33:27.096Z,100954.75
2022-10-26T03:35:57.989Z,100954.22
2022-10-26T03:38:25.085Z,100958.59
2022-10-26T03:40:52.009Z,100950.25
2022-10-26T03:43:19.007Z,100954.53
2022-10-26T03:45:46.057Z,100962.88
2022-10-26T03:48:13.285Z,100965.31
2022-10-26T03:50:40.148Z,100969.78
2022-10-26T03:53:06.956Z,100964.31
2022-10-26T03:55:33.843Z,100977.78
2022-10-26T03:58:00.622Z,100975.25
2022-10-26T04:00:27.466Z,100975.84
2022-10-26T04:02:59.304Z,100978.59
2022-10-26T04:05:28.418Z,100979.31
2022-10-26T04:08:00.390Z,100979.50
2022-10-26T04:10:27.857Z,100978.56
2022-10-26T04:12:55.558Z,100982.34
2022-10-26T04:15:22.764Z,100979.50
2022-10-26T04:17:55.991Z,100980.03
2022-10-26T04:20:22.828Z,100979.06
2022-10-26T04:22:59.289Z,100991.97
2022-10-26T04:25:28.751Z,100982.72
2022-10-26T04:27:59.649Z,100986.94
2022-10-26T04:30:26.792Z,100990.72
2022-10-26T04:32:53.774Z,101000.56
2022-10-26T04:35:20.701Z,101001.16
2022-10-26T04:37:47.717Z,101008.34
2022-10-26T04:40:14.661Z,101017.38
2022-10-26T04:42:46.842Z,101014.22
2022-10-26T04:45:16.159Z,101017.56
2022-10-26T04:47:43.306Z,101027.72
2022-10-26T04:50:12.155Z,101023.94
2022-10-26T04:52:38.957Z,101038.19
2022-10-26T04:55:07.037Z,101036.50
2022-10-26T04:57:34.801Z,101026.91
2022-10-26T05:00:03.737Z,101032.59
2022-10-26T05:02:30.810Z,101043.50
2022-10-26T05:04:57.770Z,101047.22
2022-10-26T05:07:24.659Z,101049.44
2022-10-26T05:09:51.495Z,101052.19
2022-10-26T05:12:18.345Z,101048.41
2022-10-26T05:14:45.208Z,101058.03
2022-10-26T05:17:12.030Z,101062.88
2022-10-26T05:19:38.949Z,101072.78
2022-10-26T05:22:05.825Z,101073.72
2022-10-26T05:24:32.744Z,101082.78
2022-10-26T05:26:59.626Z,101080.59
2022-10-26T05:29:26.439Z,101076.41
2022-10-26T05:31:53.333Z,101080.72
2022-10-26T05:34:20.146Z,101073.13
2022-10-26T05:36:46.980Z,101074.19
2022-10-26T05:39:13.902Z,101088.03
2022-10-26T05:41:40.733Z,101093.69
2022-10-26T05:44:07.580Z,101098.34
2022-10-26T05:46:34.428Z,101100.47
2022-10-26T05:49:01.340Z,101107.63
2022-10-26T05:51:28.157Z,101101.50
2022-10-26T05:53:54.993Z,101114.50
2022-10-26T05:56:35.379Z,101118.22
2022-10-26T05:59:02.897Z,101117.88
2022-10-26T06:01:50.210Z,101119.38
2022-10-26T06:04:22.745Z,101122.25
2022-10-26T06:06:54.690Z,101124.38
2022-10-26T06:09:21.933Z,101120.66
2022-10-26T06:14:17.164Z,101122.38
2022-10-26T06:16:55.447Z,101118.56
2022-10-26T06:19:28.046Z,101115.28
2022-10-26T06:22:27.089Z,101111.34
2022-10-26T06:25:20.062Z,101117.16
2022-10-26T06:28:03.701Z,101130.72
2022-10-26T06:30:30.592Z,101113.16
2022-10-26T06:33:05.629Z,101118.00
2022-10-26T06:35:55.306Z,101133.16
2022-10-26T06:38:25.254Z,101129.59
2022-10-26T06:40:55.548Z,101131.09
2022-10-26T06:43:28.354Z,101133.44
2022-10-26T06:46:07.678Z,101136.28
2022-10-26T06:48:49.937Z,101138.59
2022-10-26T06:51:18.265Z,101144.94
2022-10-26T06:54:10.813Z,101151.31
2022-10-26T06:56:37.921Z,101156.84
2022-10-26T06:59:13.374Z,101161.28
2022-10-26T07:01:40.445Z,101154.41
2022-10-26T07:04:07.389Z,101152.25
2022-10-26T07:06:36.833Z,101158.34
2022-10-26T07:09:06.044Z,101159.59
2022-10-26T07:11:32.873Z,101159.16
2022-10-26T07:13:59.748Z,101159.50
2022-10-26T07:16:28.003Z,101164.06
2022-10-26T07:18:54.974Z,101169.91
2022-10-26T07:21:21.864Z,101165.44
2022-10-26T07:23:48.692Z,101176.06
2022-10-26T07:26:15.574Z,101179.16
2022-10-26T07:28:42.520Z,101182.25
2022-10-26T07:31:09.393Z,101172.94
2022-10-26T07:33:39.434Z,101180.78
2022-10-26T07:36:11.022Z,101187.97
2022-10-26T07:38:39.228Z,101180.44
2022-10-26T07:41:06.619Z,101179.44
2022-10-26T07:43:33.427Z,101177.75
2022-10-26T07:46:00.272Z,101180.34
2022-10-26T07:48:27.158Z,101179.00
2022-10-26T07:50:54.080Z,101165.59
2022-10-26T07:53:24.017Z,101171.41
2022-10-26T07:55:58.807Z,101174.81
2022-10-26T07:58:27.289Z,101168.75
2022-10-26T08:00:54.234Z,101167.69
2022-10-26T08:03:21.993Z,101171.50
2022-10-26T08:05:51.448Z,101170.91
2022-10-26T08:08:18.509Z,101175.53
2022-10-26T08:10:46.297Z,101184.44
2022-10-26T08:13:14.252Z,101181.53
2022-10-26T08:15:41.451Z,101178.22
2022-10-26T08:18:08.303Z,101175.13
2022-10-26T08:20:35.162Z,101186.47
2022-10-26T08:23:04.008Z,101178.47
2022-10-26T08:25:30.893Z,101185.81
2022-10-26T08:28:01.793Z,101182.91
2022-10-26T08:30:29.972Z,101182.56
2022-10-26T08:33:05.419Z,101186.69
2022-10-26T08:35:33.057Z,101176.91
2022-10-26T08:38:00.570Z,101186.66
2022-10-26T08:40:31.657Z,101178.94
2022-10-26T08:43:16.948Z,101184.00
2022-10-26T08:45:50.859Z,101184.81
2022-10-26T08:48:22.415Z,101189.06
2022-10-26T08:50:54.644Z,101188.69
2022-10-26T08:53:44.174Z,101198.56
2022-10-26T08:56:26.173Z,101195.81
2022-10-26T08:58:59.040Z,101188.41
2022-10-26T09:01:26.006Z,101191.78
2022-10-26T09:03:52.966Z,101199.88
2022-10-26T09:06:35.137Z,101190.31
2022-10-26T09:09:21.689Z,101182.22
2022-10-26T09:12:09.610Z,101188.69
2022-10-26T09:15:00.942Z,101185.34
2022-10-26T09:17:38.437Z,101194.75
2022-10-26T09:20:26.961Z,101197.53
2022-10-26T09:23:14.781Z,101195.63
2022-10-26T09:25:42.162Z,101207.97
2022-10-26T09:28:17.903Z,101198.00
2022-10-26T09:30:48.683Z,101195.56
2022-10-26T09:33:26.600Z,101195.66
2022-10-26T09:36:01.370Z,101195.38
2022-10-26T09:38:53.157Z,101195.38
2022-10-26T09:41:31.982Z,101193.97
2022-10-26T09:44:18.605Z,101189.25
2022-10-26T09:47:23.681Z,101190.63
2022-10-26T09:49:58.304Z,101189.22
2022-10-26T09:52:25.267Z,101186.97
2022-10-26T09:54:52.088Z,101189.44
2022-10-26T09:57:20.449Z,101187.66
2022-10-26T09:59:48.180Z,101181.75
2022-10-26T10:02:40.132Z,101175.41
2022-10-26T10:05:50.208Z,101177.16
2022-10-26T10:08:19.700Z,101173.66
2022-10-26T10:11:14.351Z,101181.28
2022-10-26T10:13:43.510Z,101198.97
2022-10-26T10:16:23.988Z,101194.06
2022-10-26T10:18:56.316Z,101196.34
2022-10-26T10:21:44.519Z,101197.03
2022-10-26T10:24:41.967Z,101195.16
2022-10-26T10:27:17.598Z,101192.84
2022-10-26T10:29:47.620Z,101188.84
2022-10-26T10:32:22.364Z,101202.63
2022-10-26T10:34:54.454Z,101201.94
2022-10-26T10:37:30.900Z,101200.78
2022-10-26T10:40:02.575Z,101202.94
2022-10-26T10:42:41.101Z,101197.44
2022-10-26T10:45:20.747Z,101193.59
2022-10-26T10:48:20.739Z,101199.84
2022-10-26T10:51:01.664Z,101193.19
2022-10-26T10:53:37.422Z,101204.66
2022-10-26T10:56:11.637Z,101201.00
2022-10-26T10:58:41.481Z,101194.94
2022-10-26T11:01:14.447Z,101200.06
2022-10-26T11:04:16.985Z,101202.41
2022-10-26T11:06:45.695Z,101201.34
2022-10-26T11:09:17.215Z,101196.91
2022-10-26T11:11:49.993Z,101201.84
2022-10-26T11:14:35.516Z,101190.06
2022-10-26T11:17:14.189Z,101195.34
2022-10-26T11:19:54.481Z,101186.09
2022-10-26T11:22:26.772Z,101193.00
2022-10-26T11:24:59.721Z,101186.97
2022-10-26T11:27:39.709Z,101180.59
2022-10-26T11:30:15.081Z,101186.16
2022-10-26T11:32:47.707Z,101186.84
2022-10-26T11:35:19.719Z,101187.78
2022-10-26T11:38:01.826Z,101185.31
2022-10-26T11:40:45.794Z,101177.25
2022-10-26T11:43:41.008Z,101195.13
2022-10-26T11:46:19.115Z,101193.78
2022-10-26T11:49:01.416Z,101188.63
2022-10-26T11:51:50.917Z,101189.50
2022-10-26T11:54:45.818Z,101187.38
2022-10-26T11:57:13.002Z,101195.38
2022-10-26T11:59:46.614Z,101189.09
2022-10-26T12:02:32.593Z,101196.47
2022-10-26T12:05:20.458Z,101189.91
2022-10-26T12:07:55.856Z,101197.31
2022-10-26T12:10:32.460Z,101195.00
2022-10-26T12:12:59.232Z,101191.22
2022-10-26T12:16:03.147Z,101195.03
2022-10-26T12:18:55.541Z,101192.81
2022-10-26T12:21:27.635Z,101187.56
2022-10-26T12:24:30.203Z,101185.22
2022-10-26T12:27:04.144Z,101188.09
2022-10-26T12:29:36.993Z,101196.94
2022-10-26T12:32:25.090Z,101199.47
2022-10-26T12:34:51.875Z,101206.06
2022-10-26T12:37:51.014Z,101207.81
2022-10-26T12:40:33.234Z,101206.75
2022-10-26T12:43:18.237Z,101208.53
2022-10-26T12:45:47.025Z,101211.84
2022-10-26T12:48:42.402Z,101215.41
2022-10-26T12:51:27.109Z,101204.84
2022-10-26T12:53:59.653Z,101205.97
2022-10-26T12:56:42.565Z,101213.78
2022-10-26T12:59:17.229Z,101212.19
2022-10-26T13:02:12.090Z,101214.75
2022-10-26T13:04:57.287Z,101219.53
2022-10-26T13:07:26.504Z,101224.31
2022-10-26T13:10:11.541Z,101225.69
2022-10-26T13:12:56.475Z,101230.97
2022-10-26T13:15:31.576Z,101222.91
2022-10-26T13:18:02.625Z,101226.75
2022-10-26T13:20:31.172Z,101224.84
2022-10-26T13:22:58.805Z,101231.09
2022-10-26T13:25:31.222Z,101237.69
2022-10-26T13:28:31.740Z,101250.44
2022-10-26T13:30:58.570Z,101259.84
2022-10-26T13:33:41.002Z,101265.94
2022-10-26T13:36:15.543Z,101262.69
2022-10-26T13:38:43.094Z,101259.22
2022-10-26T13:41:20.628Z,101269.56
2022-10-26T13:43:48.649Z,101267.91
2022-10-26T13:46:27.716Z,101268.44
2022-10-26T13:49:01.461Z,101277.28
2022-10-26T13:51:43.249Z,101278.34
2022-10-26T13:54:36.945Z,101264.88
2022-10-26T13:57:15.675Z,101273.88
2022-10-26T13:59:45.715Z,101279.63
2022-10-26T14:02:23.806Z,101281.66
2022-10-26T14:05:00.324Z,101282.06
2022-10-26T14:07:37.833Z,101282.88
2022-10-26T14:10:05.172Z,101289.91
2022-10-26T14:12:32.950Z,101297.81
2022-10-26T14:15:07.573Z,101300.22
2022-10-26T14:17:34.929Z,101301.59
2022-10-26T14:20:04.212Z,101298.81
2022-10-26T14:22:31.093Z,101302.22
2022-10-26T14:24:59.890Z,101292.66
2022-10-26T14:27:32.582Z,101306.72
2022-10-26T14:30:21.707Z,101303.84
2022-10-26T14:32:48.605Z,101305.25
2022-10-26T14:35:16.209Z,101301.31
2022-10-26T14:37:50.054Z,101304.06
2022-10-26T14:40:20.820Z,101306.19
2022-10-26T14:42:51.648Z,101307.56
2022-10-26T14:45:55.112Z,101314.47
2022-10-26T14:48:31.511Z,101317.91
2022-10-26T14:51:16.338Z,101317.91
2022-10-26T14:53:49.926Z,101319.22
2022-10-26T14:56:46.470Z,101323.72
2022-10-26T14:59:22.438Z,101322.63
2022-10-26T15:01:50.749Z,101328.44
2022-10-26T15:04:32.787Z,101339.94
2022-10-26T15:07:07.873Z,101344.22
2022-10-26T15:09:51.758Z,101343.66
2022-10-26T15:27:36.945Z,101356.94
2022-10-26T15:30:20.039Z,101356.56
2022-10-26T15:32:47.377Z,101355.78
2022-10-26T15:35:19.440Z,101365.91
2022-10-26T15:37:47.363Z,101366.03
2022-10-26T15:40:15.425Z,101371.97
2022-10-26T15:42:45.407Z,101379.88
2022-10-26T15:45:27.151Z,101387.22
2022-10-26T15:47:57.718Z,101388.25
2022-10-26T15:50:27.677Z,101387.06
2022-10-26T15:53:01.613Z,101392.63
2022-10-26T15:55:30.426Z,101399.84
2022-10-26T15:57:57.289Z,101404.97
2022-10-26T16:00:24.201Z,101405.63
2022-10-26T16:02:51.020Z,101411.00
2022-10-26T16:05:18.077Z,101404.59
2022-10-26T16:07:47.920Z,101406.13
2022-10-26T16:10:23.738Z,101415.03
2022-10-26T16:12:51.249Z,101403.53
2022-10-26T16:15:20.698Z,101407.94
2022-10-26T16:17:49.156Z,101420.25
2022-10-26T16:20:23.010Z,101422.56
2022-10-26T16:22:52.471Z,101418.59
2022-10-26T16:25:24.997Z,101429.69
2022-10-26T16:27:54.334Z,101428.72
2022-10-26T16:30:25.803Z,101427.25
2022-10-26T16:32:54.061Z,101419.34
2022-10-26T16:35:20.942Z,101432.59
2022-10-26T16:37:47.929Z,101437.03
2022-10-26T16:40:14.853Z,101447.22
2022-10-26T16:42:44.023Z,101443.97
2022-10-26T16:45:12.572Z,101445.94
2022-10-26T16:47:40.293Z,101455.66
2022-10-26T16:50:11.941Z,101447.22
2022-10-26T16:52:39.642Z,101450.13
2022-10-26T16:55:08.280Z,101452.19
2022-10-26T16:57:36.549Z,101457.97
2022-10-26T17:00:06.022Z,101457.66
2022-10-26T17:02:33.179Z,101466.09
2022-10-26T17:05:02.851Z,101464.44
2022-10-26T17:07:32.897Z,101467.41
2022-10-26T17:09:59.847Z,101463.00
2022-10-26T17:15:00.700Z,101463.16
2022-10-26T17:17:27.665Z,101464.50
2022-10-26T17:19:54.601Z,101465.47
2022-10-26T17:22:21.456Z,101469.75
2022-10-26T17:24:48.304Z,101466.97
2022-10-26T17:27:17.014Z,101473.00
2022-10-26T17:29:43.874Z,101470.41
2022-10-26T17:32:10.972Z,101468.44
2022-10-26T17:34:37.897Z,101469.66
2022-10-26T17:37:04.749Z,101469.47
2022-10-26T17:39:31.566Z,101471.25
2022-10-26T17:41:58.429Z,101471.63
2022-10-26T17:44:25.470Z,101470.13
2022-10-26T17:46:52.369Z,101477.94
2022-10-26T17:49:22.267Z,101476.97
2022-10-26T17:51:50.449Z,101477.31
2022-10-26T17:56:49.024Z,101481.25
2022-10-26T17:59:15.872Z,101486.69
2022-10-26T18:01:43.526Z,101484.88
2022-10-26T18:04:10.702Z,101483.44
2022-10-26T18:06:37.574Z,101472.66
2022-10-26T18:09:04.652Z,101483.59
2022-10-26T18:14:03.570Z,101489.84
2022-10-26T18:16:31.385Z,101489.84
2022-10-26T18:19:04.487Z,101486.06
2022-10-26T18:21:37.737Z,101489.34
2022-10-26T18:24:05.913Z,101495.22
2022-10-26T18:26:33.228Z,101505.91
2022-10-26T18:29:01.990Z,101501.97
2022-10-26T18:31:31.397Z,101502.63
2022-10-26T18:34:03.291Z,101508.38
2022-10-26T18:36:30.350Z,101509.19
2022-10-26T18:38:57.878Z,101515.13
2022-10-26T18:41:26.333Z,101512.66
2022-10-26T18:43:56.634Z,101512.81
2022-10-26T18:46:39.227Z,101519.69
2022-10-26T18:49:06.408Z,101525.13
2022-10-26T18:51:34.870Z,101523.47
2022-10-26T18:54:02.252Z,101523.31
2022-10-26T18:56:29.547Z,101525.44
2022-10-26T18:58:58.834Z,101524.47
2022-10-26T19:01:29.075Z,101536.88
2022-10-26T19:03:58.728Z,101534.31
2022-10-26T19:06:28.467Z,101535.09
2022-10-26T19:08:56.184Z,101534.78
2022-10-26T19:11:25.220Z,101541.81
2022-10-26T19:13:55.163Z,101545.59
2022-10-26T19:16:44.510Z,101546.88
2022-10-26T19:19:11.692Z,101538.06
2022-10-26T19:21:38.638Z,101544.78
2022-10-26T19:24:12.079Z,101544.25
2022-10-26T19:26:42.586Z,101544.44
2022-10-26T19:29:16.015Z,101553.56
2022-10-26T19:31:47.714Z,101551.75
2022-10-26T19:34:15.944Z,101547.50
2022-10-26T19:36:45.159Z,101552.06
2022-10-26T19:39:14.187Z,101549.13
2022-10-26T19:41:41.068Z,101552.03
2022-10-26T19:44:08.004Z,101555.34
2022-10-26T19:46:34.966Z,101556.00
2022-10-26T19:49:02.509Z,101565.63
2022-10-26T19:51:30.969Z,101560.38
2022-10-26T19:54:03.173Z,101561.38
2022-10-26T19:56:32.692Z,101572.00
2022-10-26T19:58:59.646Z,101573.31
2022-10-26T20:01:26.854Z,101572.34
2022-10-26T20:03:53.927Z,101575.25
2022-10-26T20:06:20.841Z,101572.69
2022-10-26T20:08:49.188Z,101575.63
2022-10-26T20:11:18.079Z,101575.44
2022-10-26T20:13:46.386Z,101571.69
2022-10-26T20:16:15.081Z,101580.81
2022-10-26T20:18:45.753Z,101580.19
2022-10-26T20:21:16.481Z,101581.34
2022-10-26T20:23:44.274Z,101577.09
2022-10-26T20:26:18.373Z,101580.22
2022-10-26T20:28:48.196Z,101580.03
2022-10-26T20:31:15.141Z,101577.75
2022-10-26T20:33:42.485Z,101582.00
2022-10-26T20:36:09.677Z,101578.06
2022-10-26T20:38:36.887Z,101583.47
2022-10-26T20:41:07.690Z,101580.53
2022-10-26T20:43:39.441Z,101580.69
2022-10-26T20:46:11.431Z,101570.09
2022-10-26T20:48:38.901Z,101578.41
2022-10-26T20:53:59.611Z,101576.97
2022-10-26T20:56:26.970Z,101575.66
2022-10-26T20:58:56.124Z,101575.66
2022-10-26T21:01:27.799Z,101570.94
2022-10-26T21:03:56.792Z,101571.09
2022-10-26T21:06:24.987Z,101582.88
2022-10-26T21:08:53.725Z,101581.06
2022-10-26T21:11:21.925Z,101574.22
2022-10-26T21:13:49.839Z,101578.13
2022-10-26T21:16:17.953Z,101575.34
2022-10-26T21:18:45.314Z,101573.53
2022-10-26T21:21:12.445Z,101584.00
2022-10-26T21:23:41.083Z,101579.09
2022-10-26T21:26:09.110Z,101577.28
2022-10-26T21:28:45.704Z,101583.84
2022-10-26T21:31:15.129Z,101574.34
2022-10-26T21:33:42.197Z,101579.41
2022-10-26T21:36:14.177Z,101578.59
2022-10-26T21:38:43.308Z,101573.72
2022-10-26T21:41:18.071Z,101575.84
2022-10-26T21:43:48.248Z,101573.66
2022-10-26T21:46:16.854Z,101572.19
2022-10-26T21:48:43.941Z,101581.31
2022-10-26T21:51:17.060Z,101581.28
2022-10-26T21:53:44.652Z,101585.56
2022-10-26T21:56:14.492Z,101578.63
2022-10-26T21:58:41.689Z,101590.19
2022-10-26T22:01:11.338Z,101578.75
2022-10-26T22:03:39.409Z,101585.88
2022-10-26T22:06:08.493Z,101586.81
2022-10-26T22:08:36.314Z,101580.41
2022-10-26T22:11:15.574Z,101586.91
2022-10-26T22:13:44.160Z,101583.78
2022-10-26T22:16:13.617Z,101590.09
2022-10-26T22:18:43.209Z,101583.03
2022-10-26T22:21:11.109Z,101588.28
2022-10-26T22:23:40.438Z,101593.81
2022-10-26T22:26:18.870Z,101577.91
2022-10-26T22:28:47.536Z,101587.53
2022-10-26T22:31:17.726Z,101586.91
2022-10-26T22:33:45.300Z,101588.34
2022-10-26T22:36:15.275Z,101588.19
2022-10-26T22:38:42.548Z,101593.22
2022-10-26T22:41:10.417Z,101593.72
2022-10-26T22:43:37.358Z,101590.94
2022-10-26T22:46:05.905Z,101593.47
2022-10-26T22:48:34.395Z,101592.19
2022-10-26T22:51:06.494Z,101592.97
2022-10-26T22:53:33.434Z,101595.91
2022-10-26T22:58:45.496Z,101597.69
2022-10-26T23:01:21.504Z,101595.09
2022-10-26T23:03:48.954Z,101602.09
2022-10-26T23:06:18.917Z,101593.28
2022-10-26T23:08:49.645Z,101593.91
2022-10-26T23:11:19.061Z,101595.06
2022-10-26T23:13:46.041Z,101584.91
2022-10-26T23:16:17.782Z,101596.00
2022-10-26T23:18:45.144Z,101593.22
2022-10-26T23:21:14.454Z,101592.59
2022-10-26T23:23:48.133Z,101599.72
2022-10-26T23:26:18.103Z,101604.13
2022-10-26T23:28:47.950Z,101599.53
2022-10-26T23:31:20.286Z,101591.13
2022-10-26T23:33:51.561Z,101596.88
2022-10-26T23:36:19.076Z,101604.16
2022-10-26T23:38:46.747Z,101602.22
2022-10-26T23:41:13.791Z,101602.34
2022-10-26T23:43:40.850Z,101598.56
2022-10-26T23:46:07.923Z,101594.78
2022-10-26T23:48:34.754Z,101601.13
2022-10-26T23:51:01.607Z,101601.13
2022-10-26T23:53:28.595Z,101600.63
2022-10-26T23:55:55.578Z,101604.50
2022-10-26T23:58:22.532Z,101602.56
